Time;durP1;ratioP1;P1;durP2;ratioP2;P2;SDS_P1;SDS_P2;PMS_P1;PMS_P2;Temp;Humidity;BMP_temperature;BMP_pressure;BME280_temperature;BME280_humidity;BME280_pressure;Samples;Min_cycle;Max_cycle;Signal;HPM_P1;HPM_P2
2022/12/30 00:00:58;;;;;;;3.05;0.95;;;;;;;5.86;100.00;98665.56;5046617;28;20025;-75
2022/12/30 00:03:23;;;;;;;2.05;0.82;;;;;;;5.96;100.00;98679.63;5016674;28;20074;-77
2022/12/30 00:05:48;;;;;;;4.28;1.10;;;;;;;5.86;100.00;98677.13;5022851;28;20031;-76
2022/12/30 00:08:56;;;;;;;3.20;0.85;;;;;;;5.62;100.00;98637.00;5034228;28;20099;-77
2022/12/30 00:11:02;;;;;;;1.55;0.85;;;;;;;5.70;100.00;98648.53;5019486;28;20453;-77
2022/12/30 00:34:04;;;;;;;4.63;1.38;;;;;;;6.13;100.00;98675.00;5019482;28;20562;-78
2022/12/30 00:36:30;;;;;;;3.97;0.90;;;;;;;6.20;100.00;98675.94;5012345;28;20079;-76
2022/12/30 00:38:56;;;;;;;2.17;0.70;;;;;;;6.17;100.00;98672.81;5010627;28;20483;-77
2022/12/30 00:44:05;;;;;;;0.95;0.40;;;;;;;6.11;100.00;98664.44;5042529;28;20086;-75
2022/12/30 00:46:32;;;;;;;1.30;0.47;;;;;;;6.19;100.00;98682.34;5019421;28;20108;-77
2022/12/30 00:57:09;;;;;;;2.15;0.90;;;;;;;5.91;100.00;98688.19;5034638;28;20501;-77
2022/12/30 00:59:34;;;;;;;3.45;0.95;;;;;;;5.82;100.00;98683.88;5040143;28;20020;-76
2022/12/30 01:01:59;;;;;;;0.75;0.40;;;;;;;5.67;100.00;98674.91;5042503;28;20048;-76
2022/12/30 01:04:25;;;;;;;2.03;0.60;;;;;;;5.74;100.00;98699.19;5025122;28;20033;-78
2022/12/30 01:06:50;;;;;;;1.88;0.80;;;;;;;5.64;100.00;98696.72;5020672;28;21677;-77
2022/12/30 01:09:15;;;;;;;4.03;0.75;;;;;;;5.60;100.00;98714.16;5019307;28;20029;-78
2022/12/30 01:11:40;;;;;;;1.65;0.55;;;;;;;5.36;100.00;98707.88;5049028;28;20021;-78
2022/12/30 01:14:06;;;;;;;5.15;1.00;;;;;;;5.48;100.00;98741.38;5045155;28;20549;-78
2022/12/30 01:16:31;;;;;;;2.65;1.02;;;;;;;5.41;100.00;98724.31;5042166;28;20494;-78
2022/12/30 01:18:56;;;;;;;2.97;1.25;;;;;;;5.44;100.00;98737.38;5013047;28;20033;-76
2022/12/30 01:21:22;;;;;;;6.03;1.50;;;;;;;5.44;100.00;98741.91;5045895;28;20112;-78
2022/12/30 01:23:47;;;;;;;2.70;1.25;;;;;;;5.52;100.00;98751.78;5043992;28;20025;-77
2022/12/30 01:26:13;;;;;;;4.10;1.58;;;;;;;5.40;100.00;98716.44;5034807;28;20061;-76
2022/12/30 01:28:38;;;;;;;1.92;1.20;;;;;;;5.57;100.00;98744.03;5006721;28;20032;-78
2022/12/30 01:31:09;;;;;;;2.55;0.60;;;;;;;5.69;100.00;98748.88;5023304;28;20032;-76
2022/12/30 01:33:35;;;;;;;1.23;0.50;;;;;;;5.75;100.00;98759.94;5027030;28;20033;-78
2022/12/30 01:36:01;;;;;;;4.05;0.80;;;;;;;5.79;100.00;98750.50;5033587;28;20311;-78
2022/12/30 01:38:31;;;;;;;2.33;0.60;;;;;;;5.78;100.00;98752.34;5010280;28;20033;-77
2022/12/30 01:40:57;;;;;;;1.08;0.40;;;;;;;5.62;100.00;98747.06;5020835;28;20479;-76
2022/12/30 01:43:47;;;;;;;1.42;0.60;;;;;;;5.57;100.00;98744.88;5009043;28;20052;-76
2022/12/30 01:46:28;;;;;;;2.65;0.68;;;;;;;5.59;100.00;98753.59;5024382;28;20044;-77
2022/12/30 01:48:56;;;;;;;3.10;0.60;;;;;;;5.57;100.00;98760.97;5030152;28;20029;-76
2022/12/30 01:51:27;;;;;;;4.72;0.63;;;;;;;5.56;100.00;98747.75;5031651;28;20026;-76
2022/12/30 01:53:54;;;;;;;5.28;0.80;;;;;;;5.47;100.00;98747.75;5049309;28;20118;-77
2022/12/30 01:56:40;;;;;;;4.05;0.70;;;;;;;5.38;100.00;98746.13;5013617;28;20172;-77
2022/12/30 01:59:11;;;;;;;5.68;1.00;;;;;;;5.44;100.00;98744.59;5050801;28;20072;-76
2022/12/30 02:01:38;;;;;;;1.75;0.43;;;;;;;5.51;100.00;98759.00;5029760;28;20041;-77
2022/12/30 02:04:13;;;;;;;1.65;0.85;;;;;;;5.45;100.00;98755.16;5033982;28;20074;-77
2022/12/30 02:06:49;;;;;;;1.00;0.40;;;;;;;5.48;100.00;98768.22;5023361;28;20021;-76
2022/12/30 02:09:14;;;;;;;2.17;0.57;;;;;;;5.27;100.00;98754.53;5025023;28;20024;-77
2022/12/30 02:11:39;;;;;;;2.42;0.60;;;;;;;5.29;100.00;98763.22;5017183;28;20018;-77
2022/12/30 02:14:05;;;;;;;2.78;0.77;;;;;;;5.18;100.00;98758.22;5016186;28;20398;-77
2022/12/30 02:16:59;;;;;;;1.48;0.60;;;;;;;5.21;100.00;98771.28;5013861;28;20029;-76
2022/12/30 02:19:49;;;;;;;3.95;0.55;;;;;;;5.24;100.00;98785.22;5030920;28;20028;-77
2022/12/30 02:22:39;;;;;;;1.60;0.43;;;;;;;5.00;100.00;98767.31;5023948;28;20033;-77
2022/12/30 02:25:37;;;;;;;2.50;0.68;;;;;;;5.00;100.00;98787.88;5003978;28;20044;-76
2022/12/30 02:28:24;;;;;;;5.38;1.35;;;;;;;4.92;100.00;98794.09;5034540;28;20029;-76
2022/12/30 02:31:12;;;;;;;2.42;1.30;;;;;;;4.71;100.00;98799.09;5013483;28;20104;-77
2022/12/30 02:33:52;;;;;;;1.40;0.98;;;;;;;4.45;100.00;98815.31;5042215;28;20032;-77
2022/12/30 02:36:44;;;;;;;1.30;0.70;;;;;;;4.24;100.00;98805.88;5047724;28;20122;-78
2022/12/30 02:39:24;;;;;;;3.08;0.60;;;;;;;4.02;100.00;98815.34;5048196;28;20036;-76
2022/12/30 02:45:02;;;;;;;3.22;0.70;;;;;;;3.87;100.00;98811.59;5029515;28;20055;-75
2022/12/30 02:47:40;;;;;;;3.28;0.50;;;;;;;3.90;100.00;98822.84;5019747;28;20052;-76
2022/12/30 02:53:01;;;;;;;2.65;0.70;;;;;;;3.65;100.00;98815.69;5036731;28;20075;-77
2022/12/30 02:55:26;;;;;;;2.67;1.20;;;;;;;3.84;100.00;98823.47;5019194;28;20051;-78
2022/12/30 02:57:51;;;;;;;4.70;1.00;;;;;;;3.81;100.00;98818.44;5030999;28;20061;-77
2022/12/30 03:06:06;;;;;;;3.25;0.80;;;;;;;3.90;100.00;98833.56;5035115;28;20095;-77
2022/12/30 03:09:04;;;;;;;2.17;0.90;;;;;;;3.95;100.00;98849.09;5027910;28;20025;-76
2022/12/30 03:11:41;;;;;;;3.33;1.05;;;;;;;3.86;100.00;98829.50;4934374;28;20056;-77
2022/12/30 03:14:24;;;;;;;1.27;0.70;;;;;;;3.98;100.00;98855.97;5039947;28;20054;-77
2022/12/30 03:16:54;;;;;;;5.50;0.80;;;;;;;3.90;100.00;98848.75;5033175;28;20079;-77
2022/12/30 03:19:23;;;;;;;1.90;1.15;;;;;;;3.68;100.00;98837.59;5016537;28;20032;-77
2022/12/30 03:21:52;;;;;;;2.58;1.33;;;;;;;3.48;100.00;98823.63;5037710;28;20032;-77
2022/12/30 03:27:11;;;;;;;4.10;1.52;;;;;;;3.47;100.00;98829.94;5038271;28;20506;-77
2022/12/30 03:29:41;;;;;;;2.50;1.60;;;;;;;3.66;100.00;98844.94;5020598;28;20495;-78
2022/12/30 03:32:11;;;;;;;4.40;1.55;;;;;;;3.52;100.00;98810.75;5035081;28;20065;-77
2022/12/30 03:34:37;;;;;;;2.90;1.50;;;;;;;3.74;100.00;98828.94;5037907;28;20021;-76
2022/12/30 03:37:14;;;;;;;2.65;1.30;;;;;;;3.79;100.00;98827.63;5028671;28;20064;-77
2022/12/30 03:39:44;;;;;;;2.38;1.17;;;;;;;3.69;100.00;98831.25;5023603;28;20025;-77
2022/12/30 03:42:11;;;;;;;2.13;0.95;;;;;;;3.58;100.00;98831.50;5041790;28;20025;-77
2022/12/30 03:44:41;;;;;;;3.47;1.15;;;;;;;3.37;100.00;98833.72;5046302;28;20032;-78
2022/12/30 03:47:12;;;;;;;1.80;1.20;;;;;;;3.21;100.00;98832.59;5032033;28;20029;-77
2022/12/30 03:49:38;;;;;;;2.97;1.10;;;;;;;2.94;100.00;98817.53;5019524;28;20021;-77
2022/12/30 03:52:03;;;;;;;7.75;1.20;;;;;;;2.95;100.00;98821.88;5034091;28;20028;-77
2022/12/30 03:54:28;;;;;;;2.15;1.23;;;;;;;3.06;100.00;98810.09;5005814;28;20075;-77
2022/12/30 03:56:54;;;;;;;4.43;1.65;;;;;;;3.36;100.00;98824.03;5033124;28;20447;-77
2022/12/30 03:59:19;;;;;;;4.38;1.63;;;;;;;3.18;100.00;98822.22;5037138;28;20036;-77
2022/12/30 04:01:44;;;;;;;3.67;1.52;;;;;;;3.06;100.00;98829.63;5045767;28;20027;-77
2022/12/30 04:04:09;;;;;;;3.85;1.13;;;;;;;2.71;100.00;98790.44;5032846;28;20052;-77
2022/12/30 04:06:35;;;;;;;3.17;1.20;;;;;;;2.83;100.00;98812.44;5012414;28;20021;-76
2022/12/30 04:09:00;;;;;;;3.50;1.05;;;;;;;2.72;100.00;98786.78;5009562;28;20551;-77
2022/12/30 04:11:25;;;;;;;5.30;1.70;;;;;;;2.87;100.00;98810.28;5035747;28;20031;-76
2022/12/30 04:13:51;;;;;;;3.63;1.70;;;;;;;3.05;100.00;98806.59;5020777;28;20083;-77
2022/12/30 04:16:17;;;;;;;4.80;1.63;;;;;;;3.24;100.00;98816.25;5025851;28;20021;-77
2022/12/30 04:18:42;;;;;;;3.10;1.33;;;;;;;3.32;100.00;98815.47;5034206;28;20032;-77
2022/12/30 04:21:07;;;;;;;3.42;1.20;;;;;;;3.32;100.00;98818.13;5011765;28;20029;-76
2022/12/30 04:23:33;;;;;;;5.47;2.15;;;;;;;3.30;100.00;98828.16;5029619;28;20024;-77
2022/12/30 04:25:58;;;;;;;3.65;1.98;;;;;;;3.00;100.00;98805.38;5025876;28;20037;-77
2022/12/30 04:28:23;;;;;;;6.75;2.10;;;;;;;2.98;100.00;98812.72;5018976;28;20025;-76
2022/12/30 04:30:50;;;;;;;6.35;1.55;;;;;;;2.77;100.00;98805.84;5018546;28;20434;-77
2022/12/30 04:33:15;;;;;;;2.40;1.42;;;;;;;2.90;100.00;98813.47;5017468;28;20036;-77
2022/12/30 04:35:40;;;;;;;7.13;1.20;;;;;;;3.15;100.00;98843.09;5005849;28;20026;-77
2022/12/30 04:38:05;;;;;;;1.98;1.13;;;;;;;3.20;100.00;98827.44;5011138;28;20080;-77
2022/12/30 04:40:31;;;;;;;1.90;1.10;;;;;;;3.32;100.00;98833.34;5034959;28;20045;-77
2022/12/30 04:42:56;;;;;;;3.38;1.27;;;;;;;3.06;100.00;98762.81;5034189;28;20039;-77
2022/12/30 04:45:21;;;;;;;2.45;1.10;;;;;;;3.49;100.00;98845.84;5046199;28;20029;-77
2022/12/30 04:47:46;;;;;;;3.55;1.42;;;;;;;3.35;100.00;98833.88;5039520;28;20030;-76
2022/12/30 04:50:12;;;;;;;4.35;1.30;;;;;;;3.20;100.00;98822.09;5017682;28;20406;-77
2022/12/30 04:52:37;;;;;;;2.85;1.27;;;;;;;3.18;100.00;98830.25;5024387;28;20084;-75
2022/12/30 04:55:03;;;;;;;4.82;1.73;;;;;;;3.15;100.00;98811.84;5023080;28;20025;-75
2022/12/30 04:57:29;;;;;;;1.95;1.20;;;;;;;3.35;100.00;98822.34;5034747;28;20036;-75
2022/12/30 04:59:54;;;;;;;2.08;1.17;;;;;;;3.48;100.00;98830.78;5016810;28;20017;-74
2022/12/30 05:02:19;;;;;;;2.08;1.35;;;;;;;3.39;100.00;98815.69;5014898;28;20526;-75
2022/12/30 05:04:44;;;;;;;3.38;1.55;;;;;;;3.44;100.00;98835.63;5029253;28;20033;-76
2022/12/30 05:07:10;;;;;;;6.32;2.78;;;;;;;3.34;100.00;98834.88;5025774;28;20037;-75
2022/12/30 05:09:35;;;;;;;2.85;2.08;;;;;;;3.22;100.00;98820.94;5038202;28;20152;-74
2022/12/30 05:12:00;;;;;;;4.35;2.20;;;;;;;3.13;100.00;98823.69;5019557;28;20028;-81
2022/12/30 05:14:30;;;;;;;3.03;1.60;;;;;;;3.13;100.00;98837.91;5024138;28;20006;-84
2022/12/30 05:17:19;;;;;;;1.92;1.25;;;;;;;3.11;100.00;98834.53;5036397;28;20080;-83
2022/12/30 05:20:16;;;;;;;1.83;0.98;;;;;;;2.87;100.00;98804.94;5068119;28;20037;-79
2022/12/30 05:22:56;;;;;;;2.65;1.02;;;;;;;2.54;100.00;98756.56;5056777;28;20048;-81
2022/12/30 05:28:09;;;;;;;1.88;0.80;;;;;;;3.23;100.00;98821.78;5036637;28;20045;-82
2022/12/30 05:35:00;;;;;;;1.90;0.70;;;;;;;3.56;100.00;98820.13;5024908;28;20201;-83
2022/12/30 06:11:15;;;;;;;1.50;0.93;;;;;;;3.01;100.00;98842.66;4992884;28;20042;-80
2022/12/30 06:13:40;;;;;;;1.63;0.70;;;;;;;2.84;100.00;98816.78;4993492;28;20480;-73
2022/12/30 06:16:05;;;;;;;1.42;0.70;;;;;;;2.92;100.00;98840.06;4971706;28;20037;-73
2022/12/30 06:18:31;;;;;;;1.00;0.75;;;;;;;2.90;100.00;98850.06;4996380;28;20113;-74
2022/12/30 06:20:56;;;;;;;1.10;0.63;;;;;;;2.89;100.00;98851.06;5020898;28;20044;-73
2022/12/30 06:30:06;;;;;;;2.50;1.27;;;;;;;2.78;100.00;98846.78;5055387;28;20094;-74
2022/12/30 06:32:31;;;;;;;1.80;1.02;;;;;;;2.73;100.00;98839.22;5014927;28;20025;-75
2022/12/30 06:34:57;;;;;;;2.33;1.00;;;;;;;2.64;100.00;98824.09;5053482;28;20027;-74
2022/12/30 06:37:22;;;;;;;1.75;1.00;;;;;;;2.67;100.00;98813.09;5023369;28;20025;-74
2022/12/30 06:39:47;;;;;;;2.35;0.70;;;;;;;2.80;100.00;98842.97;5010422;28;20018;-76
2022/12/30 06:42:12;;;;;;;2.10;1.13;;;;;;;2.97;100.00;98859.16;5019366;28;20025;-74
2022/12/30 06:44:38;;;;;;;2.67;0.75;;;;;;;2.64;100.00;98816.09;5034511;28;20052;-74
2022/12/30 06:47:03;;;;;;;1.73;1.10;;;;;;;2.77;100.00;98861.97;5006466;28;20029;-74
2022/12/30 06:49:28;;;;;;;2.80;1.00;;;;;;;2.63;100.00;98846.47;5015263;28;20050;-74
2022/12/30 06:51:54;;;;;;;2.30;1.20;;;;;;;2.51;100.00;98847.66;5011684;28;20017;-75
2022/12/30 06:54:19;;;;;;;2.63;1.65;;;;;;;2.39;100.00;98845.22;5008371;28;20029;-74
2022/12/30 06:56:59;;;;;;;3.65;1.85;;;;;;;2.49;100.00;98863.00;5012025;28;20033;-87
2022/12/30 06:59:24;;;;;;;3.78;1.70;;;;;;;2.14;100.00;98813.91;5012336;28;20090;-75
2022/12/30 07:01:50;;;;;;;3.17;2.08;;;;;;;2.33;100.00;98850.31;5024692;28;20475;-76
2022/12/30 07:04:16;;;;;;;4.13;2.65;;;;;;;2.16;100.00;98820.78;5034323;28;20033;-73
2022/12/30 07:06:41;;;;;;;5.40;2.80;;;;;;;2.20;100.00;98845.31;5020974;28;20029;-75
2022/12/30 07:09:06;;;;;;;4.68;2.60;;;;;;;1.91;100.00;98803.66;5014092;28;20503;-74
2022/12/30 07:11:31;;;;;;;5.50;2.60;;;;;;;1.97;100.00;98824.38;5028946;28;20017;-74
2022/12/30 07:13:57;;;;;;;7.35;3.42;;;;;;;1.82;100.00;98804.53;5047540;28;20025;-76
2022/12/30 07:16:22;;;;;;;6.45;2.72;;;;;;;1.84;100.00;98821.22;5046215;28;20041;-74
2022/12/30 07:18:47;;;;;;;8.63;3.15;;;;;;;1.93;100.00;98835.50;5048792;28;20057;-75
2022/12/30 07:21:13;;;;;;;6.97;2.72;;;;;;;1.84;100.00;98855.91;5022204;28;20033;-74
2022/12/30 07:23:38;;;;;;;5.38;3.03;;;;;;;1.88;100.00;98851.94;5012587;28;20029;-73
2022/12/30 07:26:03;;;;;;;6.43;3.10;;;;;;;1.81;100.00;98848.19;5032219;28;20079;-74
2022/12/30 07:28:28;;;;;;;5.47;3.05;;;;;;;1.72;100.00;98830.38;5042087;28;20032;-74
2022/12/30 07:30:54;;;;;;;5.32;3.20;;;;;;;1.90;100.00;98855.31;5009685;28;20108;-73
2022/12/30 07:33:40;;;;;;;8.00;3.22;;;;;;;1.95;100.00;98854.88;5032331;28;20846;-78
2022/12/30 07:36:06;;;;;;;6.65;3.30;;;;;;;1.89;100.00;98850.97;5019628;28;20066;-74
2022/12/30 07:38:31;;;;;;;11.80;4.55;;;;;;;2.00;100.00;98870.44;5013717;28;20056;-77
2022/12/30 07:40:58;;;;;;;6.47;3.65;;;;;;;1.77;100.00;98827.28;5033465;28;20056;-82
2022/12/30 07:43:23;;;;;;;7.18;3.47;;;;;;;1.94;100.00;98848.69;5025486;28;20041;-78
2022/12/30 07:46:26;;;;;;;5.97;3.53;;;;;;;2.08;100.00;98871.38;5026022;28;20014;-82
2022/12/30 07:48:51;;;;;;;7.45;4.00;;;;;;;2.10;100.00;98860.56;5010235;28;20427;-80
2022/12/30 07:51:18;;;;;;;8.90;4.13;;;;;;;2.14;100.00;98843.25;5022526;28;20093;-75
2022/12/30 07:53:44;;;;;;;10.20;3.65;;;;;;;2.24;100.00;98840.53;5016686;28;20082;-76
2022/12/30 07:56:11;;;;;;;7.43;3.80;;;;;;;2.16;100.00;98822.59;5024113;28;20016;-75
2022/12/30 07:58:37;;;;;;;11.63;5.05;;;;;;;2.50;100.00;98854.00;5014173;28;20021;-75
2022/12/30 08:01:18;;;;;;;10.57;5.72;;;;;;;2.50;100.00;98846.84;5032436;28;20013;-79
2022/12/30 08:04:39;;;;;;;14.60;6.35;;;;;;;2.57;100.00;98857.78;5032633;28;20021;-87
2022/12/30 08:11:08;;;;;;;9.57;5.35;;;;;;;2.58;100.00;98852.25;5054714;28;20028;-86
2022/12/30 08:14:05;;;;;;;7.32;4.63;;;;;;;2.77;100.00;98853.94;5018828;28;20041;-85
2022/12/30 08:24:24;;;;;;;6.97;4.10;;;;;;;3.57;100.00;98845.91;4921205;29;20114;-87
2022/12/30 08:26:49;;;;;;;9.15;4.05;;;;;;;3.63;100.00;98806.97;4909589;29;20058;-75
2022/12/30 08:29:15;;;;;;;5.28;3.40;;;;;;;4.00;100.00;98843.28;4975555;28;20504;-72
2022/12/30 08:31:40;;;;;;;6.90;3.63;;;;;;;4.12;100.00;98840.16;5006932;28;20164;-73
2022/12/30 08:34:05;;;;;;;6.22;2.83;;;;;;;4.28;100.00;98838.53;5012245;28;20535;-73
2022/12/30 08:36:31;;;;;;;4.20;2.63;;;;;;;4.46;100.00;98841.94;5024268;28;20479;-72
2022/12/30 08:39:00;;;;;;;4.93;2.45;;;;;;;4.50;100.00;98832.56;5034296;28;20437;-71
2022/12/30 08:41:27;;;;;;;;;;;;;;;4.46;100.00;98825.03;5026476;28;20029;-72
2022/12/30 08:43:55;;;;;;;6.43;2.45;;;;;;;4.68;100.00;98818.22;5025290;28;19921;-72
2022/12/30 08:46:20;;;;;;;4.45;1.63;;;;;;;4.82;100.00;98810.34;5034346;28;20374;-73
2022/12/30 08:48:46;;;;;;;3.40;1.95;;;;;;;4.91;100.00;98807.69;5012723;28;21258;-72
2022/12/30 08:51:12;;;;;;;6.78;2.40;;;;;;;5.09;100.00;98791.44;5016108;28;20562;-72
2022/12/30 08:53:38;;;;;;;5.97;2.42;;;;;;;5.19;100.00;98774.16;5008406;28;20021;-72
2022/12/30 08:56:14;;;;;;;7.80;3.53;;;;;;;5.39;100.00;98752.31;5018712;28;20031;-72
2022/12/30 08:58:39;;;;;;;10.95;5.03;;;;;;;5.49;100.00;98752.97;5043946;28;20042;-73
2022/12/30 09:01:13;;;;;;;14.73;5.10;;;;;;;5.69;100.00;98756.09;5026187;28;20491;-72
2022/12/30 09:03:39;;;;;;;8.45;4.13;;;;;;;5.66;100.00;98717.00;5022840;28;20025;-73
2022/12/30 09:06:05;;;;;;;9.73;4.25;;;;;;;6.03;100.00;98734.31;5044778;28;20079;-73
2022/12/30 09:08:31;;;;;;;5.88;3.42;;;;;;;6.39;100.00;98706.06;5022701;28;20017;-73
2022/12/30 09:11:01;;;;;;;7.15;3.20;;;;;;;7.19;100.00;98714.44;5042986;28;20544;-73
2022/12/30 09:13:27;;;;;;;5.18;2.30;;;;;;;8.47;100.00;98697.00;5015364;28;20534;-73
2022/12/30 09:15:53;;;;;;;6.05;2.85;;;;;;;10.00;100.00;98675.56;5026764;28;20036;-73
2022/12/30 09:18:18;;;;;;;4.95;2.33;;;;;;;12.01;100.00;98668.00;5027117;28;20026;-71
2022/12/30 09:20:44;;;;;;;5.10;2.13;;;;;;;13.42;100.00;98681.41;5026995;28;20040;-71
2022/12/30 09:23:09;;;;;;;5.13;1.92;;;;;;;15.41;100.00;98670.41;5011316;28;20026;-71
2022/12/30 09:25:34;;;;;;;10.25;2.28;;;;;;;14.41;100.00;98692.97;5033487;28;20029;-71
2022/12/30 09:28:00;;;;;;;7.00;2.55;;;;;;;13.01;100.00;98691.75;5037489;28;20104;-72
2022/12/30 09:30:25;;;;;;;5.88;2.40;;;;;;;12.11;100.00;98689.25;5009144;28;20491;-71
2022/12/30 09:32:50;;;;;;;1.92;0.65;;;;;;;12.78;100.00;98695.06;5031361;28;20034;-72
2022/12/30 09:35:15;;;;;;;1.45;0.80;;;;;;;13.90;100.00;98697.78;5015033;28;20172;-71
2022/12/30 09:37:41;;;;;;;2.63;0.38;;;;;;;15.71;97.84;98683.09;5019679;28;20018;-71
2022/12/30 09:40:13;;;;;;;1.05;0.57;;;;;;;16.14;87.86;98687.28;5013472;28;20107;-73
2022/12/30 09:45:41;;;;;;;0.90;0.52;;;;;;;14.75;100.00;98676.97;5038073;28;20047;-71
2022/12/30 09:48:15;;;;;;;1.05;0.45;;;;;;;14.02;100.00;98660.63;5030669;28;20025;-73
2022/12/30 09:50:45;;;;;;;0.75;0.30;;;;;;;14.74;100.00;98661.72;5041742;28;20090;-71
2022/12/30 09:53:16;;;;;;;2.90;0.80;;;;;;;15.17;92.50;98646.94;5035834;28;20025;-72
2022/12/30 09:55:58;;;;;;;0.30;0.30;;;;;;;15.26;91.92;98654.53;5011562;28;20030;-71
2022/12/30 09:58:32;;;;;;;0.95;0.30;;;;;;;15.64;83.16;98641.44;5037012;28;20044;-70
2022/12/30 10:01:13;;;;;;;2.50;0.70;;;;;;;16.68;74.84;98641.31;5010131;28;20541;-70
2022/12/30 10:03:38;;;;;;;2.22;0.73;;;;;;;16.27;74.40;98610.56;5027603;28;20108;-69
2022/12/30 10:06:25;;;;;;;3.22;0.80;;;;;;;17.11;70.73;98636.28;5022859;28;20113;-78
2022/12/30 10:08:53;;;;;;;2.47;0.90;;;;;;;17.76;68.73;98630.09;5023753;28;20034;-79
2022/12/30 10:11:40;;;;;;;2.10;0.73;;;;;;;17.48;65.41;98606.47;5026623;28;20033;-75
2022/12/30 10:14:25;;;;;;;1.38;0.50;;;;;;;17.82;65.29;98595.44;5007278;28;20036;-76
2022/12/30 10:17:08;;;;;;;1.92;0.55;;;;;;;18.09;63.57;98584.53;5013718;28;20041;-77
2022/12/30 10:20:06;;;;;;;2.50;1.15;;;;;;;17.73;63.98;98601.31;5021250;28;20025;-83
2022/12/30 10:23:03;;;;;;;1.42;0.77;;;;;;;17.56;64.08;98586.91;5023847;28;20055;-82
2022/12/30 10:25:41;;;;;;;1.27;0.60;;;;;;;17.62;62.38;98583.13;5013549;28;20442;-77
2022/12/30 10:28:10;;;;;;;1.50;0.80;;;;;;;17.53;63.71;98560.06;5020253;28;20131;-76
2022/12/30 10:30:45;;;;;;;1.30;0.70;;;;;;;16.42;67.18;98566.28;5029639;28;20040;-79
2022/12/30 10:33:18;;;;;;;2.10;0.70;;;;;;;15.87;68.88;98554.13;5026361;28;20041;-82
2022/12/30 10:35:45;;;;;;;1.23;0.55;;;;;;;15.48;72.36;98567.53;5024753;28;20089;-80
2022/12/30 10:38:15;;;;;;;1.13;0.70;;;;;;;16.25;73.10;98555.38;5020263;28;20033;-77
2022/12/30 10:41:05;;;;;;;1.90;0.98;;;;;;;16.53;72.59;98570.03;5022275;28;20128;-75
2022/12/30 10:43:50;;;;;;;2.05;1.00;;;;;;;17.10;68.76;98569.84;5014873;28;20055;-76
2022/12/30 10:46:33;;;;;;;2.20;0.63;;;;;;;17.35;66.92;98571.31;5016163;28;20461;-78
2022/12/30 10:49:29;;;;;;;1.90;0.80;;;;;;;17.33;68.21;98565.25;5025150;28;20029;-80
2022/12/30 10:51:54;;;;;;;1.52;0.80;;;;;;;17.57;68.38;98566.66;5014897;28;20026;-69
2022/12/30 10:54:20;;;;;;;2.35;1.00;;;;;;;18.20;63.92;98552.59;5008466;28;20025;-71
2022/12/30 10:56:47;;;;;;;4.07;1.13;;;;;;;18.46;63.11;98546.25;5025305;28;20087;-71
2022/12/30 10:59:17;;;;;;;2.33;0.77;;;;;;;18.40;62.21;98539.91;5111626;22;20055;-63
2022/12/30 11:01:46;;;;;;;3.95;0.88;;;;;;;18.35;62.07;98541.78;5026423;28;20033;-63
2022/12/30 11:04:35;;;;;;;1.48;0.85;;;;;;;17.48;63.23;98538.09;5020321;28;20183;-62
2022/12/30 11:07:03;;;;;;;2.45;0.68;;;;;;;17.30;64.03;98531.84;5004612;28;20026;-62
2022/12/30 11:09:29;;;;;;;1.75;0.98;;;;;;;17.04;65.48;98529.88;5004835;28;20025;-61
2022/12/30 11:14:44;;;;;;;4.13;0.93;;;;;;;16.47;69.47;98513.69;5032922;28;20084;-61
2022/12/30 11:17:20;;;;;;;1.20;0.68;;;;;;;15.61;74.21;98508.31;5029637;28;20442;-61
2022/12/30 11:19:59;;;;;;;2.47;0.82;;;;;;;15.72;80.29;98508.31;5012440;28;20033;-62
2022/12/30 11:22:25;;;;;;;3.28;0.60;;;;;;;15.50;74.86;98508.09;5020028;28;20056;-61
2022/12/30 11:25:14;;;;;;;1.52;0.80;;;;;;;16.66;71.92;98512.34;5017862;28;20052;-61
2022/12/30 11:27:47;;;;;;;1.55;0.68;;;;;;;16.63;68.25;98518.28;5020756;28;20025;-61
2022/12/30 11:30:28;;;;;;;3.05;0.80;;;;;;;17.27;65.26;98509.69;5013333;28;20020;-61
2022/12/30 11:32:55;;;;;;;1.40;0.52;;;;;;;17.16;66.11;98518.81;5011003;28;20022;-63
2022/12/30 11:35:42;;;;;;;2.15;0.70;;;;;;;17.61;62.45;98520.47;5014729;28;20025;-63
2022/12/30 11:38:26;;;;;;;2.22;0.85;;;;;;;18.25;60.66;98522.53;5016058;28;20029;-65
2022/12/30 11:40:54;;;;;;;2.22;0.90;;;;;;;15.68;67.39;98519.91;5013226;28;20021;-64
2022/12/30 11:43:20;;;;;;;2.58;0.75;;;;;;;15.51;75.54;98526.16;5011626;28;20572;-64
2022/12/30 11:46:01;;;;;;;1.23;0.50;;;;;;;15.47;73.10;98524.13;5008582;28;20472;-64
2022/12/30 11:51:51;;;;;;;2.22;0.77;;;;;;;17.46;65.51;98494.59;5049017;28;20529;-61
2022/12/30 11:54:20;;;;;;;1.63;0.80;;;;;;;17.08;64.93;98488.13;5044438;23;20051;-67
2022/12/30 11:56:53;;;;;;;0.80;0.40;;;;;;;17.08;65.85;98485.38;5029456;28;20082;-68
2022/12/30 11:59:23;;;;;;;3.08;0.60;;;;;;;15.61;71.73;98478.31;5029471;28;20467;-66
2022/12/30 12:01:54;;;;;;;1.35;0.77;;;;;;;14.19;90.40;98470.34;5027253;28;20021;-67
2022/12/30 12:04:35;;;;;;;1.70;0.90;;;;;;;13.58;100.00;98466.06;5026205;28;20098;-67
2022/12/30 12:07:02;;;;;;;2.13;0.82;;;;;;;12.83;100.00;98464.47;5027062;28;20060;-67
2022/12/30 12:09:40;;;;;;;3.92;0.98;;;;;;;12.77;100.00;98453.72;5037551;28;21148;-67
2022/12/30 12:12:15;;;;;;;1.88;0.73;;;;;;;12.60;100.00;98440.75;5021030;28;20028;-67
2022/12/30 12:15:18;;;;;;;1.92;0.90;;;;;;;11.71;100.00;98455.44;5022691;28;20039;-67
2022/12/30 12:18:02;;;;;;;0.85;0.50;;;;;;;11.25;100.00;98434.91;5003893;28;20381;-67
2022/12/30 12:20:40;;;;;;;1.27;0.45;;;;;;;11.47;100.00;98440.81;5024020;28;20388;-56
2022/12/30 12:23:11;;;;;;;1.20;0.50;;;;;;;11.28;100.00;98439.91;5024457;28;20041;-57
2022/12/30 12:26:03;;;;;;;1.63;0.93;;;;;;;11.03;100.00;98437.94;5037976;28;20067;-58
2022/12/30 12:28:29;;;;;;;1.23;0.70;;;;;;;10.87;100.00;98433.84;5021469;28;20025;-58
2022/12/30 12:31:49;;;;;;;1.42;0.70;;;;;;;10.47;100.00;98442.06;5032978;28;20039;-58
2022/12/30 12:34:36;;;;;;;2.08;0.70;;;;;;;10.50;100.00;98433.53;4972978;28;20110;-67
2022/12/30 12:37:30;;;;;;;1.85;0.80;;;;;;;10.09;100.00;98434.63;5027052;28;20021;-67
2022/12/30 12:40:04;;;;;;;1.20;0.80;;;;;;;9.89;100.00;98425.69;5031496;28;20032;-68
2022/12/30 12:42:46;;;;;;;2.25;0.70;;;;;;;9.89;100.00;98433.78;5025741;28;20025;-67
2022/12/30 12:45:18;;;;;;;2.38;1.00;;;;;;;9.98;100.00;98426.28;5030581;28;20028;-67
2022/12/30 12:47:49;;;;;;;2.83;0.98;;;;;;;9.98;100.00;98412.78;5023881;28;20131;-67
2022/12/30 12:50:34;;;;;;;1.25;0.70;;;;;;;10.02;100.00;98412.16;5031356;28;20435;-67
2022/12/30 12:53:39;;;;;;;4.40;1.20;;;;;;;10.08;100.00;98415.91;5036730;28;20025;-67
2022/12/30 12:56:23;;;;;;;2.30;0.75;;;;;;;10.10;100.00;98403.00;5024418;28;20048;-67
2022/12/30 12:59:07;;;;;;;2.72;0.85;;;;;;;9.94;100.00;98416.97;5028273;28;20013;-67
2022/12/30 13:01:41;;;;;;;1.15;0.60;;;;;;;9.99;100.00;98400.94;5038130;28;20029;-67
2022/12/30 13:04:40;;;;;;;2.75;0.63;;;;;;;10.12;100.00;98400.09;5023028;28;20045;-67
2022/12/30 13:07:24;;;;;;;0.95;0.60;;;;;;;10.18;100.00;98391.16;5035420;28;20480;-61
2022/12/30 13:10:11;;;;;;;1.95;0.60;;;;;;;10.04;100.00;98377.66;5023298;28;20068;-61
2022/12/30 13:12:38;;;;;;;1.00;0.40;;;;;;;9.90;100.00;98384.09;5041276;28;20096;-60
2022/12/30 13:15:27;;;;;;;1.80;0.50;;;;;;;9.66;100.00;98382.88;5029975;28;20535;-61
2022/12/30 13:17:58;;;;;;;6.13;0.88;;;;;;;9.69;100.00;98365.41;5027836;28;20029;-60
2022/12/30 13:20:30;;;;;;;2.95;0.60;;;;;;;9.60;100.00;98360.22;5027791;28;20144;-61
2022/12/30 13:23:01;;;;;;;0.68;0.50;;;;;;;9.64;100.00;98352.53;5028172;28;20379;-61
2022/12/30 13:25:36;;;;;;;2.72;0.70;;;;;;;9.67;100.00;98346.75;5032110;28;20468;-61
2022/12/30 13:28:02;;;;;;;1.52;0.65;;;;;;;9.67;100.00;98349.44;5027656;28;20115;-61
2022/12/30 13:30:47;;;;;;;1.02;0.47;;;;;;;9.74;100.00;98328.63;5039455;28;20029;-61
2022/12/30 13:33:20;;;;;;;1.38;0.40;;;;;;;9.79;100.00;98318.03;5030243;28;20029;-61
2022/12/30 13:35:57;;;;;;;2.00;0.60;;;;;;;9.78;100.00;98310.97;5024646;28;20049;-61
2022/12/30 13:38:35;;;;;;;2.40;0.90;;;;;;;9.71;100.00;98307.44;5030754;28;20090;-61
2022/12/30 13:41:19;;;;;;;1.08;0.70;;;;;;;9.78;100.00;98294.75;5033722;28;20090;-61
2022/12/30 13:43:49;;;;;;;1.60;0.65;;;;;;;9.72;100.00;98295.63;5026932;28;20048;-61
2022/12/30 13:46:21;;;;;;;1.65;0.63;;;;;;;9.75;100.00;98305.19;5029392;28;20029;-61
2022/12/30 13:49:01;;;;;;;1.55;0.60;;;;;;;9.66;100.00;98302.66;5024756;28;20095;-61